aviador You're here:

KCON Decoded Metar

CONCORD in NH, USA
Report Time2017-07-21 05:51:00
UTC Time2017-07-21 06:51:33
Flight Rules vfr VFR
WindCalm
Visibility9999 m
Phenomena:N/A
Clouds:N/A
Expected CloudBase > 400 ft AGL from Temp-Dew spread
CeilingNone
Temp18°C (ISA +4)
Dew Point17°C (94% RH)
QNH1010 hPa
Density Alt1,129 ft
Elevation338 ft
Report Wrong Elevation
Raw Report
KCON 210551Z AUTO 00000KT 8SM CLR 18/17 A2983 RMK AO2 SLP100
T01780167 10267 20178 58002 $=

Extra information for KCON:More info

Metar Taf Metar & Taf Last 4 Metars F.Rules Stats Wind Profile Meteogram Temp Stats Airport Information Weather charts Add Link Nearby VenuesMetar ALERT Operation Metar Decoded Social comments

AIRNAV info for KCON